sensor_id;sensor_type;location;lat;lon;timestamp;temperature;humidity
28835;DHT22;15969;51.536;11.884;2023-05-10T00:00:21;12.50;88.80
28835;DHT22;15969;51.536;11.884;2023-05-10T00:02:47;12.50;89.40
28835;DHT22;15969;51.536;11.884;2023-05-10T00:05:13;12.50;89.40
28835;DHT22;15969;51.536;11.884;2023-05-10T00:07:39;12.50;89.80
28835;DHT22;15969;51.536;11.884;2023-05-10T00:10:05;12.40;90.10
28835;DHT22;15969;51.536;11.884;2023-05-10T00:12:31;12.40;90.20
28835;DHT22;15969;51.536;11.884;2023-05-10T00:14:57;12.40;90.30
28835;DHT22;15969;51.536;11.884;2023-05-10T00:17:23;12.40;90.60
28835;DHT22;15969;51.536;11.884;2023-05-10T00:19:48;12.30;90.70
28835;DHT22;15969;51.536;11.884;2023-05-10T00:22:14;12.30;90.80
28835;DHT22;15969;51.536;11.884;2023-05-10T00:24:39;12.30;91.00
28835;DHT22;15969;51.536;11.884;2023-05-10T00:27:05;12.30;91.00
28835;DHT22;15969;51.536;11.884;2023-05-10T00:29:31;12.30;91.30
28835;DHT22;15969;51.536;11.884;2023-05-10T00:31:57;12.20;91.40
28835;DHT22;15969;51.536;11.884;2023-05-10T00:34:22;12.20;91.50
28835;DHT22;15969;51.536;11.884;2023-05-10T00:36:48;12.20;91.70
28835;DHT22;15969;51.536;11.884;2023-05-10T00:39:14;12.10;91.70
28835;DHT22;15969;51.536;11.884;2023-05-10T00:41:39;12.20;91.90
28835;DHT22;15969;51.536;11.884;2023-05-10T00:44:05;12.20;92.10
28835;DHT22;15969;51.536;11.884;2023-05-10T00:46:31;12.10;92.20
28835;DHT22;15969;51.536;11.884;2023-05-10T00:48:57;12.10;92.30
28835;DHT22;15969;51.536;11.884;2023-05-10T00:51:23;12.10;92.50
28835;DHT22;15969;51.536;11.884;2023-05-10T00:53:49;12.10;92.60
28835;DHT22;15969;51.536;11.884;2023-05-10T00:56:16;12.10;92.60
28835;DHT22;15969;51.536;11.884;2023-05-10T00:58:42;12.10;92.80
28835;DHT22;15969;51.536;11.884;2023-05-10T01:01:08;12.10;92.80
28835;DHT22;15969;51.536;11.884;2023-05-10T01:03:35;12.20;93.10
28835;DHT22;15969;51.536;11.884;2023-05-10T01:06:01;12.20;93.10
28835;DHT22;15969;51.536;11.884;2023-05-10T01:08:27;12.10;93.20
28835;DHT22;15969;51.536;11.884;2023-05-10T01:10:54;12.10;93.30
28835;DHT22;15969;51.536;11.884;2023-05-10T01:13:38;12.10;93.30
28835;DHT22;15969;51.536;11.884;2023-05-10T01:16:05;12.10;93.40
28835;DHT22;15969;51.536;11.884;2023-05-10T01:18:38;12.00;93.80
28835;DHT22;15969;51.536;11.884;2023-05-10T01:27:10;12.00;94.20
28835;DHT22;15969;51.536;11.884;2023-05-10T01:30:05;11.90;94.30
28835;DHT22;15969;51.536;11.884;2023-05-10T01:32:54;11.90;94.50
28835;DHT22;15969;51.536;11.884;2023-05-10T01:36:00;11.80;94.70
28835;DHT22;15969;51.536;11.884;2023-05-10T01:38:51;11.90;94.90
28835;DHT22;15969;51.536;11.884;2023-05-10T01:41:48;11.70;95.20
28835;DHT22;15969;51.536;11.884;2023-05-10T01:44:29;11.70;95.20
28835;DHT22;15969;51.536;11.884;2023-05-10T01:47:07;11.70;95.70
28835;DHT22;15969;51.536;11.884;2023-05-10T01:49:46;11.70;95.90
28835;DHT22;15969;51.536;11.884;2023-05-10T01:52:18;11.60;96.00
28835;DHT22;15969;51.536;11.884;2023-05-10T01:54:52;11.40;96.20
28835;DHT22;15969;51.536;11.884;2023-05-10T01:57:22;11.20;96.70
28835;DHT22;15969;51.536;11.884;2023-05-10T01:59:52;11.30;97.30
28835;DHT22;15969;51.536;11.884;2023-05-10T02:02:20;11.20;97.40
28835;DHT22;15969;51.536;11.884;2023-05-10T02:04:47;11.20;97.80
28835;DHT22;15969;51.536;11.884;2023-05-10T02:07:15;11.00;97.90
28835;DHT22;15969;51.536;11.884;2023-05-10T02:09:44;10.80;98.20
28835;DHT22;15969;51.536;11.884;2023-05-10T02:12:13;10.80;99.00
28835;DHT22;15969;51.536;11.884;2023-05-10T02:14:41;10.70;99.10
28835;DHT22;15969;51.536;11.884;2023-05-10T02:17:08;10.60;99.80
28835;DHT22;15969;51.536;11.884;2023-05-10T02:19:35;10.50;99.90
28835;DHT22;15969;51.536;11.884;2023-05-10T02:22:04;10.60;99.90
28835;DHT22;15969;51.536;11.884;2023-05-10T02:24:31;10.50;99.90
28835;DHT22;15969;51.536;11.884;2023-05-10T02:26:57;10.50;99.90
28835;DHT22;15969;51.536;11.884;2023-05-10T02:29:25;10.50;99.90
28835;DHT22;15969;51.536;11.884;2023-05-10T02:31:53;10.40;99.90
28835;DHT22;15969;51.536;11.884;2023-05-10T02:34:21;10.30;99.90
28835;DHT22;15969;51.536;11.884;2023-05-10T02:36:47;10.30;99.90
28835;DHT22;15969;51.536;11.884;2023-05-10T02:39:14;10.30;99.90
28835;DHT22;15969;51.536;11.884;2023-05-10T02:41:41;10.20;99.90
28835;DHT22;15969;51.536;11.884;2023-05-10T02:44:08;10.30;99.90
28835;DHT22;15969;51.536;11.884;2023-05-10T02:46:35;10.20;99.90
28835;DHT22;15969;51.536;11.884;2023-05-10T02:49:02;10.20;99.90
28835;DHT22;15969;51.536;11.884;2023-05-10T02:51:31;10.10;99.90
28835;DHT22;15969;51.536;11.884;2023-05-10T02:54:04;10.10;99.90
28835;DHT22;15969;51.536;11.884;2023-05-10T02:56:34;10.10;99.90
28835;DHT22;15969;51.536;11.884;2023-05-10T02:59:01;10.00;99.90
28835;DHT22;15969;51.536;11.884;2023-05-10T03:01:27;10.00;99.90
28835;DHT22;15969;51.536;11.884;2023-05-10T03:03:53;10.00;99.90
28835;DHT22;15969;51.536;11.884;2023-05-10T03:06:18;9.90;99.90
28835;DHT22;15969;51.536;11.884;2023-05-10T03:08:45;9.80;99.90
28835;DHT22;15969;51.536;11.884;2023-05-10T03:14:18;9.80;99.90
28835;DHT22;15969;51.536;11.884;2023-05-10T03:16:47;9.70;99.90
28835;DHT22;15969;51.536;11.884;2023-05-10T03:19:32;9.60;99.90
28835;DHT22;15969;51.536;11.884;2023-05-10T03:22:07;9.60;99.90
28835;DHT22;15969;51.536;11.884;2023-05-10T03:24:35;9.60;99.90
28835;DHT22;15969;51.536;11.884;2023-05-10T03:27:02;9.70;99.90
28835;DHT22;15969;51.536;11.884;2023-05-10T03:29:29;9.70;99.90
28835;DHT22;15969;51.536;11.884;2023-05-10T03:31:58;9.60;99.90
28835;DHT22;15969;51.536;11.884;2023-05-10T03:34:25;9.60;99.90
28835;DHT22;15969;51.536;11.884;2023-05-10T03:36:51;9.60;99.90
28835;DHT22;15969;51.536;11.884;2023-05-10T03:39:19;9.70;99.90
28835;DHT22;15969;51.536;11.884;2023-05-10T03:41:46;9.70;99.90
28835;DHT22;15969;51.536;11.884;2023-05-10T03:44:12;9.80;99.90
28835;DHT22;15969;51.536;11.884;2023-05-10T03:46:37;9.80;99.90
28835;DHT22;15969;51.536;11.884;2023-05-10T03:49:03;9.80;99.90
28835;DHT22;15969;51.536;11.884;2023-05-10T03:51:29;9.80;99.90
28835;DHT22;15969;51.536;11.884;2023-05-10T03:53:56;9.80;99.90
28835;DHT22;15969;51.536;11.884;2023-05-10T03:56:22;9.90;99.90
28835;DHT22;15969;51.536;11.884;2023-05-10T03:58:47;9.90;99.90
28835;DHT22;15969;51.536;11.884;2023-05-10T04:01:13;9.90;99.90
28835;DHT22;15969;51.536;11.884;2023-05-10T04:03:39;10.00;99.90
28835;DHT22;15969;51.536;11.884;2023-05-10T04:06:05;9.90;99.90
28835;DHT22;15969;51.536;11.884;2023-05-10T04:08:31;10.00;99.90
28835;DHT22;15969;51.536;11.884;2023-05-10T04:11:15;10.10;99.90
28835;DHT22;15969;51.536;11.884;2023-05-10T04:13:41;10.20;99.90
28835;DHT22;15969;51.536;11.884;2023-05-10T04:16:06;10.20;99.90
28835;DHT22;15969;51.536;11.884;2023-05-10T04:18:32;10.30;99.90
28835;DHT22;15969;51.536;11.884;2023-05-10T04:20:58;10.50;99.90
28835;DHT22;15969;51.536;11.884;2023-05-10T04:23:23;10.60;99.90
28835;DHT22;15969;51.536;11.884;2023-05-10T04:25:49;10.80;99.90
28835;DHT22;15969;51.536;11.884;2023-05-10T04:28:15;10.80;99.90
28835;DHT22;15969;51.536;11.884;2023-05-10T04:30:40;10.90;99.90
28835;DHT22;15969;51.536;11.884;2023-05-10T04:33:06;11.00;99.90
28835;DHT22;15969;51.536;11.884;2023-05-10T04:35:32;11.10;99.90
28835;DHT22;15969;51.536;11.884;2023-05-10T04:37:58;11.20;99.90
28835;DHT22;15969;51.536;11.884;2023-05-10T04:40:23;11.30;99.90
28835;DHT22;15969;51.536;11.884;2023-05-10T04:42:49;11.40;99.90
28835;DHT22;15969;51.536;11.884;2023-05-10T04:45:15;11.50;99.90
28835;DHT22;15969;51.536;11.884;2023-05-10T04:47:40;11.60;99.90
28835;DHT22;15969;51.536;11.884;2023-05-10T04:50:07;11.70;99.90
28835;DHT22;15969;51.536;11.884;2023-05-10T04:52:33;11.80;99.90
28835;DHT22;15969;51.536;11.884;2023-05-10T04:54:59;11.90;99.90
28835;DHT22;15969;51.536;11.884;2023-05-10T04:57:24;11.90;99.90
28835;DHT22;15969;51.536;11.884;2023-05-10T04:59:50;12.00;99.90
28835;DHT22;15969;51.536;11.884;2023-05-10T05:02:16;12.10;99.90
28835;DHT22;15969;51.536;11.884;2023-05-10T05:04:42;12.20;99.90
28835;DHT22;15969;51.536;11.884;2023-05-10T05:07:07;12.20;99.90
28835;DHT22;15969;51.536;11.884;2023-05-10T05:09:33;12.30;99.90
28835;DHT22;15969;51.536;11.884;2023-05-10T05:11:59;12.40;99.90
28835;DHT22;15969;51.536;11.884;2023-05-10T05:14:25;12.40;99.90
28835;DHT22;15969;51.536;11.884;2023-05-10T05:16:53;12.40;99.90
28835;DHT22;15969;51.536;11.884;2023-05-10T05:19:19;12.50;99.90
28835;DHT22;15969;51.536;11.884;2023-05-10T05:21:45;12.50;99.90
28835;DHT22;15969;51.536;11.884;2023-05-10T05:24:11;12.60;99.90
28835;DHT22;15969;51.536;11.884;2023-05-10T05:26:38;12.70;99.90
28835;DHT22;15969;51.536;11.884;2023-05-10T05:29:04;12.70;99.90
28835;DHT22;15969;51.536;11.884;2023-05-10T05:31:29;12.80;99.90
28835;DHT22;15969;51.536;11.884;2023-05-10T05:33:55;12.90;99.90
28835;DHT22;15969;51.536;11.884;2023-05-10T05:36:21;13.00;99.90
28835;DHT22;15969;51.536;11.884;2023-05-10T05:38:47;13.10;99.90
28835;DHT22;15969;51.536;11.884;2023-05-10T05:41:13;13.20;99.90
28835;DHT22;15969;51.536;11.884;2023-05-10T05:43:38;13.30;99.90
28835;DHT22;15969;51.536;11.884;2023-05-10T05:46:04;13.40;99.90
28835;DHT22;15969;51.536;11.884;2023-05-10T05:48:30;13.40;99.90
28835;DHT22;15969;51.536;11.884;2023-05-10T05:50:56;13.60;99.90
28835;DHT22;15969;51.536;11.884;2023-05-10T05:53:22;13.60;99.90
28835;DHT22;15969;51.536;11.884;2023-05-10T05:55:56;13.70;99.90
28835;DHT22;15969;51.536;11.884;2023-05-10T05:58:23;13.80;99.90
28835;DHT22;15969;51.536;11.884;2023-05-10T06:00:50;13.90;99.90
28835;DHT22;15969;51.536;11.884;2023-05-10T06:03:17;14.00;99.90
28835;DHT22;15969;51.536;11.884;2023-05-10T06:05:43;14.10;99.90
28835;DHT22;15969;51.536;11.884;2023-05-10T06:08:09;14.20;99.90
28835;DHT22;15969;51.536;11.884;2023-05-10T06:10:35;14.20;99.90
28835;DHT22;15969;51.536;11.884;2023-05-10T06:13:01;14.30;99.90
28835;DHT22;15969;51.536;11.884;2023-05-10T06:15:27;14.30;99.90
28835;DHT22;15969;51.536;11.884;2023-05-10T06:17:53;14.40;99.90
28835;DHT22;15969;51.536;11.884;2023-05-10T06:20:19;14.50;99.90
28835;DHT22;15969;51.536;11.884;2023-05-10T06:22:44;14.50;99.90
28835;DHT22;15969;51.536;11.884;2023-05-10T06:25:10;14.60;99.90
28835;DHT22;15969;51.536;11.884;2023-05-10T06:27:36;14.80;99.90
28835;DHT22;15969;51.536;11.884;2023-05-10T06:30:02;14.70;99.90
28835;DHT22;15969;51.536;11.884;2023-05-10T06:32:29;14.80;99.90
28835;DHT22;15969;51.536;11.884;2023-05-10T06:34:54;14.90;99.90
28835;DHT22;15969;51.536;11.884;2023-05-10T06:37:20;15.00;99.90
28835;DHT22;15969;51.536;11.884;2023-05-10T06:39:46;15.00;99.90
28835;DHT22;15969;51.536;11.884;2023-05-10T06:42:11;15.10;99.90
28835;DHT22;15969;51.536;11.884;2023-05-10T06:44:37;15.10;99.90
28835;DHT22;15969;51.536;11.884;2023-05-10T06:47:03;15.10;99.90
28835;DHT22;15969;51.536;11.884;2023-05-10T06:49:29;15.50;99.90
28835;DHT22;15969;51.536;11.884;2023-05-10T06:51:55;15.20;99.90
28835;DHT22;15969;51.536;11.884;2023-05-10T06:54:21;15.20;99.90
28835;DHT22;15969;51.536;11.884;2023-05-10T06:56:47;15.20;99.90
28835;DHT22;15969;51.536;11.884;2023-05-10T06:59:12;15.30;99.90
28835;DHT22;15969;51.536;11.884;2023-05-10T07:01:39;15.40;99.90
28835;DHT22;15969;51.536;11.884;2023-05-10T07:04:04;15.40;99.90
28835;DHT22;15969;51.536;11.884;2023-05-10T07:06:30;15.40;99.90
28835;DHT22;15969;51.536;11.884;2023-05-10T07:08:56;15.40;99.90
28835;DHT22;15969;51.536;11.884;2023-05-10T07:11:22;15.40;99.90
28835;DHT22;15969;51.536;11.884;2023-05-10T07:13:47;15.40;99.90
28835;DHT22;15969;51.536;11.884;2023-05-10T07:16:13;15.40;99.90
28835;DHT22;15969;51.536;11.884;2023-05-10T07:18:39;15.30;99.90
28835;DHT22;15969;51.536;11.884;2023-05-10T07:21:04;15.40;99.90
28835;DHT22;15969;51.536;11.884;2023-05-10T07:23:30;15.40;99.90
28835;DHT22;15969;51.536;11.884;2023-05-10T07:25:56;15.40;99.90
28835;DHT22;15969;51.536;11.884;2023-05-10T07:28:23;15.30;99.90
28835;DHT22;15969;51.536;11.884;2023-05-10T07:30:51;15.40;99.90
28835;DHT22;15969;51.536;11.884;2023-05-10T07:33:17;15.30;99.90
28835;DHT22;15969;51.536;11.884;2023-05-10T07:35:43;15.40;99.90
28835;DHT22;15969;51.536;11.884;2023-05-10T07:38:08;15.40;99.90
28835;DHT22;15969;51.536;11.884;2023-05-10T07:40:36;15.40;99.90
28835;DHT22;15969;51.536;11.884;2023-05-10T07:43:02;15.50;99.90
28835;DHT22;15969;51.536;11.884;2023-05-10T07:45:28;15.60;99.90
28835;DHT22;15969;51.536;11.884;2023-05-10T07:47:53;15.60;99.90
28835;DHT22;15969;51.536;11.884;2023-05-10T07:50:19;15.70;99.90
28835;DHT22;15969;51.536;11.884;2023-05-10T07:52:46;15.80;99.90
28835;DHT22;15969;51.536;11.884;2023-05-10T07:55:12;15.80;99.90
28835;DHT22;15969;51.536;11.884;2023-05-10T07:57:38;15.80;99.90
28835;DHT22;15969;51.536;11.884;2023-05-10T08:00:05;15.90;99.90
28835;DHT22;15969;51.536;11.884;2023-05-10T08:02:32;15.90;99.90
28835;DHT22;15969;51.536;11.884;2023-05-10T08:05:00;16.00;99.90
28835;DHT22;15969;51.536;11.884;2023-05-10T08:07:25;16.00;99.90
28835;DHT22;15969;51.536;11.884;2023-05-10T08:09:51;16.00;99.90
28835;DHT22;15969;51.536;11.884;2023-05-10T08:12:16;15.90;99.90
28835;DHT22;15969;51.536;11.884;2023-05-10T08:14:42;16.00;99.90
28835;DHT22;15969;51.536;11.884;2023-05-10T08:17:08;16.00;99.90
28835;DHT22;15969;51.536;11.884;2023-05-10T08:19:34;16.00;99.90
28835;DHT22;15969;51.536;11.884;2023-05-10T08:22:00;15.90;99.90
28835;DHT22;15969;51.536;11.884;2023-05-10T08:24:25;15.90;99.90
28835;DHT22;15969;51.536;11.884;2023-05-10T08:26:51;15.90;99.90
28835;DHT22;15969;51.536;11.884;2023-05-10T08:29:16;15.90;99.90
28835;DHT22;15969;51.536;11.884;2023-05-10T08:31:42;15.90;99.90
28835;DHT22;15969;51.536;11.884;2023-05-10T08:34:08;15.90;99.90
28835;DHT22;15969;51.536;11.884;2023-05-10T08:36:33;15.90;99.90
28835;DHT22;15969;51.536;11.884;2023-05-10T08:38:59;15.90;99.90
28835;DHT22;15969;51.536;11.884;2023-05-10T08:41:25;16.00;99.90
28835;DHT22;15969;51.536;11.884;2023-05-10T08:43:52;16.00;99.90
28835;DHT22;15969;51.536;11.884;2023-05-10T08:46:20;16.00;99.90
28835;DHT22;15969;51.536;11.884;2023-05-10T08:48:48;16.10;99.90
28835;DHT22;15969;51.536;11.884;2023-05-10T08:51:22;16.10;99.90
28835;DHT22;15969;51.536;11.884;2023-05-10T08:53:50;16.20;99.90
28835;DHT22;15969;51.536;11.884;2023-05-10T08:56:16;16.20;99.90
28835;DHT22;15969;51.536;11.884;2023-05-10T08:58:43;16.30;99.90
28835;DHT22;15969;51.536;11.884;2023-05-10T09:01:09;16.30;99.90
28835;DHT22;15969;51.536;11.884;2023-05-10T09:03:38;16.30;99.90
28835;DHT22;15969;51.536;11.884;2023-05-10T09:06:04;16.30;99.90
28835;DHT22;15969;51.536;11.884;2023-05-10T09:08:30;16.30;99.90
28835;DHT22;15969;51.536;11.884;2023-05-10T09:10:56;16.30;99.90
28835;DHT22;15969;51.536;11.884;2023-05-10T09:13:23;16.30;99.90
28835;DHT22;15969;51.536;11.884;2023-05-10T09:15:50;16.40;99.90
28835;DHT22;15969;51.536;11.884;2023-05-10T09:18:16;16.40;99.90
28835;DHT22;15969;51.536;11.884;2023-05-10T09:20:42;16.40;99.90
28835;DHT22;15969;51.536;11.884;2023-05-10T09:23:08;16.50;99.90
28835;DHT22;15969;51.536;11.884;2023-05-10T09:25:33;16.50;99.90
28835;DHT22;15969;51.536;11.884;2023-05-10T09:27:59;16.60;99.90
28835;DHT22;15969;51.536;11.884;2023-05-10T09:30:30;16.60;99.90
28835;DHT22;15969;51.536;11.884;2023-05-10T09:32:59;16.60;99.90
28835;DHT22;15969;51.536;11.884;2023-05-10T09:35:27;16.70;99.90
28835;DHT22;15969;51.536;11.884;2023-05-10T09:37:55;16.70;99.90
28835;DHT22;15969;51.536;11.884;2023-05-10T09:40:27;16.70;99.90
28835;DHT22;15969;51.536;11.884;2023-05-10T09:43:06;16.70;99.90
28835;DHT22;15969;51.536;11.884;2023-05-10T09:45:34;16.70;99.90
28835;DHT22;15969;51.536;11.884;2023-05-10T09:48:01;16.70;99.90
28835;DHT22;15969;51.536;11.884;2023-05-10T09:50:28;16.80;99.90
28835;DHT22;15969;51.536;11.884;2023-05-10T09:52:55;16.90;99.90
28835;DHT22;15969;51.536;11.884;2023-05-10T09:55:38;17.00;99.90
28835;DHT22;15969;51.536;11.884;2023-05-10T09:58:03;17.10;99.90
28835;DHT22;15969;51.536;11.884;2023-05-10T10:00:39;17.20;99.90
28835;DHT22;15969;51.536;11.884;2023-05-10T10:03:15;17.30;99.90
28835;DHT22;15969;51.536;11.884;2023-05-10T10:05:48;17.40;99.90
28835;DHT22;15969;51.536;11.884;2023-05-10T10:08:15;17.40;99.90
28835;DHT22;15969;51.536;11.884;2023-05-10T10:10:41;17.50;99.90
28835;DHT22;15969;51.536;11.884;2023-05-10T10:13:07;17.60;99.90
28835;DHT22;15969;51.536;11.884;2023-05-10T10:15:34;17.60;99.90
28835;DHT22;15969;51.536;11.884;2023-05-10T10:18:00;17.60;99.90
28835;DHT22;15969;51.536;11.884;2023-05-10T10:20:26;17.60;99.90
28835;DHT22;15969;51.536;11.884;2023-05-10T10:22:53;17.60;99.90
28835;DHT22;15969;51.536;11.884;2023-05-10T10:25:19;17.60;99.90
28835;DHT22;15969;51.536;11.884;2023-05-10T10:30:45;17.60;99.90
28835;DHT22;15969;51.536;11.884;2023-05-10T10:36:16;17.60;99.90
28835;DHT22;15969;51.536;11.884;2023-05-10T10:41:36;17.80;99.90
28835;DHT22;15969;51.536;11.884;2023-05-10T10:52:28;18.10;99.90
28835;DHT22;15969;51.536;11.884;2023-05-10T10:57:30;18.20;99.90
28835;DHT22;15969;51.536;11.884;2023-05-10T11:00:20;18.20;99.90
28835;DHT22;15969;51.536;11.884;2023-05-10T11:02:51;18.30;99.90
28835;DHT22;15969;51.536;11.884;2023-05-10T11:07:57;18.30;99.90
28835;DHT22;15969;51.536;11.884;2023-05-10T11:10:25;18.30;99.90
28835;DHT22;15969;51.536;11.884;2023-05-10T11:13:27;18.30;99.90
28835;DHT22;15969;51.536;11.884;2023-05-10T11:15:55;18.40;99.90
28835;DHT22;15969;51.536;11.884;2023-05-10T11:18:29;18.40;99.90
28835;DHT22;15969;51.536;11.884;2023-05-10T11:21:00;18.50;99.90
28835;DHT22;15969;51.536;11.884;2023-05-10T11:26:12;18.80;99.90
28835;DHT22;15969;51.536;11.884;2023-05-10T11:28:45;18.90;99.90
28835;DHT22;15969;51.536;11.884;2023-05-10T11:31:15;19.00;99.90
28835;DHT22;15969;51.536;11.884;2023-05-10T11:33:46;19.10;99.90
28835;DHT22;15969;51.536;11.884;2023-05-10T11:36:21;19.20;99.90
28835;DHT22;15969;51.536;11.884;2023-05-10T11:38:49;19.40;99.90
28835;DHT22;15969;51.536;11.884;2023-05-10T11:41:16;19.50;99.90
28835;DHT22;15969;51.536;11.884;2023-05-10T11:43:46;19.60;99.90
28835;DHT22;15969;51.536;11.884;2023-05-10T11:46:14;19.70;99.90
28835;DHT22;15969;51.536;11.884;2023-05-10T11:48:40;19.80;99.90
28835;DHT22;15969;51.536;11.884;2023-05-10T11:51:07;19.80;99.90
28835;DHT22;15969;51.536;11.884;2023-05-10T11:53:33;19.80;99.90
28835;DHT22;15969;51.536;11.884;2023-05-10T11:56:06;19.80;99.90
28835;DHT22;15969;51.536;11.884;2023-05-10T11:58:33;19.70;99.90
28835;DHT22;15969;51.536;11.884;2023-05-10T12:00:59;19.70;99.90
28835;DHT22;15969;51.536;11.884;2023-05-10T12:03:26;19.70;99.90
28835;DHT22;15969;51.536;11.884;2023-05-10T12:05:54;19.70;99.90
28835;DHT22;15969;51.536;11.884;2023-05-10T12:08:22;19.50;99.90
28835;DHT22;15969;51.536;11.884;2023-05-10T12:10:49;19.60;99.90
28835;DHT22;15969;51.536;11.884;2023-05-10T12:13:15;19.60;99.90
28835;DHT22;15969;51.536;11.884;2023-05-10T12:15:41;19.60;99.90
28835;DHT22;15969;51.536;11.884;2023-05-10T12:18:12;19.50;99.90
28835;DHT22;15969;51.536;11.884;2023-05-10T12:20:39;19.40;99.90
28835;DHT22;15969;51.536;11.884;2023-05-10T12:23:07;19.40;99.90
28835;DHT22;15969;51.536;11.884;2023-05-10T12:25:35;19.30;99.90
28835;DHT22;15969;51.536;11.884;2023-05-10T12:28:06;19.30;99.90
28835;DHT22;15969;51.536;11.884;2023-05-10T12:30:35;19.30;99.90
28835;DHT22;15969;51.536;11.884;2023-05-10T12:33:02;19.50;99.90
28835;DHT22;15969;51.536;11.884;2023-05-10T12:35:33;19.50;99.90
28835;DHT22;15969;51.536;11.884;2023-05-10T12:38:29;19.60;99.90
28835;DHT22;15969;51.536;11.884;2023-05-10T12:41:02;19.70;99.90
28835;DHT22;15969;51.536;11.884;2023-05-10T12:43:29;19.70;99.90
28835;DHT22;15969;51.536;11.884;2023-05-10T12:45:55;19.70;99.90
28835;DHT22;15969;51.536;11.884;2023-05-10T12:48:21;19.70;99.90
28835;DHT22;15969;51.536;11.884;2023-05-10T12:50:47;19.70;99.90
28835;DHT22;15969;51.536;11.884;2023-05-10T12:53:16;19.60;99.90
28835;DHT22;15969;51.536;11.884;2023-05-10T12:55:43;19.60;99.90
28835;DHT22;15969;51.536;11.884;2023-05-10T12:58:09;19.50;99.90
28835;DHT22;15969;51.536;11.884;2023-05-10T13:00:34;19.50;99.90
28835;DHT22;15969;51.536;11.884;2023-05-10T13:03:00;19.50;99.90
28835;DHT22;15969;51.536;11.884;2023-05-10T13:05:26;19.50;99.90
28835;DHT22;15969;51.536;11.884;2023-05-10T13:07:51;19.50;99.90
28835;DHT22;15969;51.536;11.884;2023-05-10T13:10:17;19.50;99.90
28835;DHT22;15969;51.536;11.884;2023-05-10T13:12:43;19.50;99.90
28835;DHT22;15969;51.536;11.884;2023-05-10T13:15:09;19.50;99.90
28835;DHT22;15969;51.536;11.884;2023-05-10T13:17:35;19.50;99.90
28835;DHT22;15969;51.536;11.884;2023-05-10T13:20:01;19.60;99.90
28835;DHT22;15969;51.536;11.884;2023-05-10T13:22:26;19.60;99.90
28835;DHT22;15969;51.536;11.884;2023-05-10T13:24:52;19.70;99.90
28835;DHT22;15969;51.536;11.884;2023-05-10T13:27:18;19.60;99.90
28835;DHT22;15969;51.536;11.884;2023-05-10T13:29:43;19.80;99.90
28835;DHT22;15969;51.536;11.884;2023-05-10T13:32:09;19.90;99.90
28835;DHT22;15969;51.536;11.884;2023-05-10T13:34:35;20.00;99.90
28835;DHT22;15969;51.536;11.884;2023-05-10T13:37:01;20.10;99.90
28835;DHT22;15969;51.536;11.884;2023-05-10T13:39:26;20.10;99.90
28835;DHT22;15969;51.536;11.884;2023-05-10T13:41:52;20.30;99.90
28835;DHT22;15969;51.536;11.884;2023-05-10T13:44:20;20.30;99.90
28835;DHT22;15969;51.536;11.884;2023-05-10T13:46:45;20.30;99.90
28835;DHT22;15969;51.536;11.884;2023-05-10T13:49:11;20.30;99.90
28835;DHT22;15969;51.536;11.884;2023-05-10T13:51:37;20.30;99.90
28835;DHT22;15969;51.536;11.884;2023-05-10T13:54:03;20.40;99.90
28835;DHT22;15969;51.536;11.884;2023-05-10T13:56:28;20.40;99.90
28835;DHT22;15969;51.536;11.884;2023-05-10T13:58:55;20.50;99.90
28835;DHT22;15969;51.536;11.884;2023-05-10T14:01:22;20.50;99.90
28835;DHT22;15969;51.536;11.884;2023-05-10T14:03:47;20.60;99.90
28835;DHT22;15969;51.536;11.884;2023-05-10T14:06:13;20.60;99.90
28835;DHT22;15969;51.536;11.884;2023-05-10T14:08:39;20.60;99.90
28835;DHT22;15969;51.536;11.884;2023-05-10T14:11:05;20.60;99.90
28835;DHT22;15969;51.536;11.884;2023-05-10T14:13:30;20.60;99.90
28835;DHT22;15969;51.536;11.884;2023-05-10T14:15:56;20.40;99.90
28835;DHT22;15969;51.536;11.884;2023-05-10T14:18:22;20.40;99.90
28835;DHT22;15969;51.536;11.884;2023-05-10T14:20:48;20.40;99.90
28835;DHT22;15969;51.536;11.884;2023-05-10T14:23:14;20.30;99.90
28835;DHT22;15969;51.536;11.884;2023-05-10T14:25:40;20.30;99.90
28835;DHT22;15969;51.536;11.884;2023-05-10T14:28:06;20.20;99.90
28835;DHT22;15969;51.536;11.884;2023-05-10T14:30:32;20.20;99.90
28835;DHT22;15969;51.536;11.884;2023-05-10T14:32:59;20.10;99.90
28835;DHT22;15969;51.536;11.884;2023-05-10T14:35:27;20.00;99.90
28835;DHT22;15969;51.536;11.884;2023-05-10T14:37:53;20.00;99.90
28835;DHT22;15969;51.536;11.884;2023-05-10T14:40:18;20.00;99.90
28835;DHT22;15969;51.536;11.884;2023-05-10T14:42:44;20.00;99.90
28835;DHT22;15969;51.536;11.884;2023-05-10T14:45:10;20.20;99.90
28835;DHT22;15969;51.536;11.884;2023-05-10T14:47:37;20.40;99.90
28835;DHT22;15969;51.536;11.884;2023-05-10T14:50:03;20.50;99.90
28835;DHT22;15969;51.536;11.884;2023-05-10T14:52:29;20.60;99.90
28835;DHT22;15969;51.536;11.884;2023-05-10T14:54:54;20.70;99.90
28835;DHT22;15969;51.536;11.884;2023-05-10T14:57:20;20.70;99.90
28835;DHT22;15969;51.536;11.884;2023-05-10T14:59:46;20.80;99.90
28835;DHT22;15969;51.536;11.884;2023-05-10T15:02:11;20.90;99.90
28835;DHT22;15969;51.536;11.884;2023-05-10T15:04:38;20.90;99.90
28835;DHT22;15969;51.536;11.884;2023-05-10T15:07:04;20.90;99.90
28835;DHT22;15969;51.536;11.884;2023-05-10T15:09:29;20.90;99.90
28835;DHT22;15969;51.536;11.884;2023-05-10T15:11:55;20.80;99.90
28835;DHT22;15969;51.536;11.884;2023-05-10T15:14:22;20.70;99.90
28835;DHT22;15969;51.536;11.884;2023-05-10T15:16:48;20.60;99.90
28835;DHT22;15969;51.536;11.884;2023-05-10T15:19:13;20.50;99.90
28835;DHT22;15969;51.536;11.884;2023-05-10T15:21:39;20.50;99.90
28835;DHT22;15969;51.536;11.884;2023-05-10T15:24:08;20.50;99.90
28835;DHT22;15969;51.536;11.884;2023-05-10T15:26:34;20.40;99.90
28835;DHT22;15969;51.536;11.884;2023-05-10T15:28:59;20.40;99.90
28835;DHT22;15969;51.536;11.884;2023-05-10T15:31:25;20.30;99.90
28835;DHT22;15969;51.536;11.884;2023-05-10T15:33:56;20.20;99.90
28835;DHT22;15969;51.536;11.884;2023-05-10T15:36:23;20.10;99.90
28835;DHT22;15969;51.536;11.884;2023-05-10T15:38:49;20.00;99.90
28835;DHT22;15969;51.536;11.884;2023-05-10T15:41:15;19.90;99.90
28835;DHT22;15969;51.536;11.884;2023-05-10T15:43:40;19.80;99.90
28835;DHT22;15969;51.536;11.884;2023-05-10T15:46:06;19.70;99.90
28835;DHT22;15969;51.536;11.884;2023-05-10T15:48:32;19.70;99.90
28835;DHT22;15969;51.536;11.884;2023-05-10T15:50:58;19.60;99.90
28835;DHT22;15969;51.536;11.884;2023-05-10T15:53:24;19.50;99.90